createdAt,value
2023-05-23T00:01:09.747Z,17.31
2023-05-23T00:03:38.206Z,17.28
2023-05-23T00:06:08.268Z,17.27
2023-05-23T00:08:36.120Z,17.24
2023-05-23T00:11:03.849Z,17.24
2023-05-23T00:13:33.578Z,17.23
2023-05-23T00:16:02.461Z,17.19
2023-05-23T00:18:30.619Z,17.19
2023-05-23T00:20:59.251Z,17.17
2023-05-23T00:23:29.770Z,17.15
2023-05-23T00:25:58.475Z,17.12
2023-05-23T00:28:27.198Z,17.11
2023-05-23T00:30:54.909Z,17.05
2023-05-23T00:33:23.758Z,17.04
2023-05-23T00:35:51.627Z,17.00
2023-05-23T00:38:19.433Z,16.98
2023-05-23T00:40:49.288Z,16.91
2023-05-23T00:43:16.996Z,16.92
2023-05-23T00:45:44.704Z,16.90
2023-05-23T00:48:12.808Z,16.87
2023-05-23T00:50:40.552Z,16.86
2023-05-23T00:53:08.305Z,16.81
2023-05-23T00:55:36.197Z,16.84
2023-05-23T00:58:05.648Z,16.78
2023-05-23T01:00:34.113Z,16.83
2023-05-23T01:03:01.947Z,16.80
2023-05-23T01:05:30.110Z,16.77
2023-05-23T01:07:58.058Z,16.74
2023-05-23T01:10:28.133Z,16.71
2023-05-23T01:13:03.513Z,16.70
2023-05-23T01:15:38.637Z,16.72
2023-05-23T01:18:09.653Z,16.72
2023-05-23T01:20:41.544Z,16.68
2023-05-23T01:23:34.669Z,16.66
2023-05-23T01:26:13.234Z,16.63
2023-05-23T01:28:45.439Z,16.63
2023-05-23T01:31:13.308Z,16.61
2023-05-23T01:33:42.173Z,16.57
2023-05-23T01:36:10.302Z,16.55
2023-05-23T01:38:38.025Z,16.51
2023-05-23T01:41:05.816Z,16.48
2023-05-23T01:43:33.689Z,16.46
2023-05-23T01:46:03.275Z,16.41
2023-05-23T01:48:32.357Z,16.35
2023-05-23T01:51:00.375Z,16.32
2023-05-23T01:53:28.776Z,16.25
2023-05-23T01:55:56.953Z,16.20
2023-05-23T01:58:24.688Z,16.13
2023-05-23T02:00:52.446Z,16.08
2023-05-23T02:03:21.660Z,16.03
2023-05-23T02:05:49.460Z,16.00
2023-05-23T02:08:17.246Z,15.98
2023-05-23T02:10:45.010Z,15.98
2023-05-23T02:13:12.819Z,15.95
2023-05-23T02:15:41.021Z,15.90
2023-05-23T02:18:08.924Z,15.88
2023-05-23T02:20:38.131Z,15.87
2023-05-23T02:23:06.444Z,15.90
2023-05-23T02:25:34.179Z,15.89
2023-05-23T02:28:02.050Z,15.89
2023-05-23T02:30:29.770Z,15.89
2023-05-23T02:32:58.292Z,15.84
2023-05-23T02:35:26.102Z,15.83
2023-05-23T02:37:55.212Z,15.82
2023-05-23T02:40:22.964Z,15.78
2023-05-23T02:42:51.743Z,15.76
2023-05-23T02:45:19.551Z,15.74
2023-05-23T02:47:47.289Z,15.76
2023-05-23T02:50:15.063Z,15.75
2023-05-23T02:52:44.161Z,15.70
2023-05-23T02:55:13.358Z,15.66
2023-05-23T02:57:41.403Z,15.65
2023-05-23T03:00:11.785Z,15.66
2023-05-23T03:02:39.605Z,15.66
2023-05-23T03:05:08.365Z,15.63
2023-05-23T03:07:36.679Z,15.63
2023-05-23T03:10:04.542Z,15.63
2023-05-23T03:12:33.630Z,15.61
2023-05-23T03:15:01.346Z,15.62
2023-05-23T03:17:29.054Z,15.60
2023-05-23T03:19:56.832Z,15.61
2023-05-23T03:22:24.523Z,15.58
2023-05-23T03:24:52.211Z,15.54
2023-05-23T03:27:19.905Z,15.55
2023-05-23T03:29:49.044Z,15.55
2023-05-23T03:32:16.743Z,15.56
2023-05-23T03:34:44.510Z,15.55
2023-05-23T03:37:12.328Z,15.51
2023-05-23T03:39:40.092Z,15.56
2023-05-23T03:42:08.469Z,15.53
2023-05-23T03:44:36.230Z,15.50
2023-05-23T03:47:05.882Z,15.53
2023-05-23T03:49:33.549Z,15.54
2023-05-23T03:52:01.232Z,15.53
2023-05-23T03:54:28.935Z,15.51
2023-05-23T03:56:56.884Z,15.50
2023-05-23T03:59:24.745Z,15.47
2023-05-23T04:01:52.434Z,15.39
2023-05-23T04:04:22.341Z,15.38
2023-05-23T04:06:50.007Z,15.30
2023-05-23T04:09:17.850Z,15.27
2023-05-23T04:11:45.623Z,15.26
2023-05-23T04:14:14.157Z,15.27
2023-05-23T04:16:42.655Z,15.23
2023-05-23T04:19:10.498Z,15.20
2023-05-23T04:21:39.600Z,15.18
2023-05-23T04:24:08.199Z,15.17
2023-05-23T04:26:36.591Z,15.19
2023-05-23T04:29:06.144Z,15.16
2023-05-23T04:31:35.314Z,15.18
2023-05-23T04:34:03.826Z,15.22
2023-05-23T04:36:31.569Z,15.27
2023-05-23T04:39:00.639Z,15.33
2023-05-23T04:41:28.433Z,15.36
2023-05-23T04:43:58.145Z,15.37
2023-05-23T04:46:26.794Z,15.34
2023-05-23T04:48:55.073Z,15.33
2023-05-23T04:51:22.918Z,15.32
2023-05-23T04:53:51.330Z,15.30
2023-05-23T04:56:22.346Z,15.32
2023-05-23T04:58:50.034Z,15.33
2023-05-23T05:01:17.832Z,15.27
2023-05-23T05:03:45.639Z,15.28
2023-05-23T05:06:13.419Z,15.30
2023-05-23T05:08:41.783Z,15.28
2023-05-23T05:11:10.670Z,15.20
2023-05-23T05:13:39.785Z,15.23
2023-05-23T05:16:07.924Z,15.22
2023-05-23T05:18:36.549Z,15.19
2023-05-23T05:21:04.565Z,15.16
2023-05-23T05:23:33.375Z,15.16
2023-05-23T05:26:01.609Z,15.17
2023-05-23T05:28:29.316Z,15.18
2023-05-23T05:30:58.959Z,15.20
2023-05-23T05:33:28.376Z,15.18
2023-05-23T05:35:56.230Z,15.21
2023-05-23T05:38:23.923Z,15.21
2023-05-23T05:40:51.626Z,15.20
2023-05-23T05:43:19.356Z,15.17
2023-05-23T05:45:47.064Z,15.10
2023-05-23T05:48:16.584Z,15.06
2023-05-23T05:50:45.353Z,15.02
2023-05-23T05:53:13.595Z,14.99
2023-05-23T05:55:41.312Z,15.03
2023-05-23T05:58:08.980Z,15.01
2023-05-23T06:00:42.131Z,14.99
2023-05-23T06:03:10.250Z,14.95
2023-05-23T06:05:40.046Z,14.93
2023-05-23T06:08:07.907Z,14.90
2023-05-23T06:10:35.654Z,14.83
2023-05-23T06:13:03.369Z,14.87
2023-05-23T06:15:31.189Z,14.89
2023-05-23T06:17:59.039Z,14.89
2023-05-23T06:20:26.804Z,14.82
2023-05-23T06:22:55.919Z,14.81
2023-05-23T06:25:23.634Z,14.78
2023-05-23T06:27:51.309Z,14.78
2023-05-23T06:30:19.112Z,14.78
2023-05-23T06:32:46.969Z,14.74
2023-05-23T06:35:14.850Z,14.70
2023-05-23T06:37:45.607Z,14.74
2023-05-23T06:40:14.800Z,14.73
2023-05-23T06:42:42.599Z,14.73
2023-05-23T06:45:12.453Z,14.70
2023-05-23T06:47:43.828Z,14.69
2023-05-23T06:50:12.246Z,14.69
2023-05-23T06:52:39.959Z,14.59
2023-05-23T06:55:08.522Z,14.62
2023-05-23T06:57:37.655Z,14.59
2023-05-23T07:00:06.653Z,14.55
2023-05-23T07:02:34.400Z,14.53
2023-05-23T07:05:02.367Z,14.49
2023-05-23T07:07:30.244Z,14.48
2023-05-23T07:09:58.044Z,14.44
2023-05-23T07:12:25.831Z,14.40
2023-05-23T07:14:54.995Z,14.38
2023-05-23T07:17:22.828Z,14.39
2023-05-23T07:19:50.738Z,14.40
2023-05-23T07:22:18.533Z,14.38
2023-05-23T07:24:46.311Z,14.41
2023-05-23T07:27:14.287Z,14.38
2023-05-23T07:29:42.198Z,14.35
2023-05-23T07:32:11.376Z,14.34
2023-05-23T07:34:39.081Z,14.35
2023-05-23T07:37:07.210Z,14.34
2023-05-23T07:39:35.819Z,14.32
2023-05-23T07:42:03.563Z,14.29
2023-05-23T07:44:31.269Z,14.25
2023-05-23T07:46:59.092Z,14.23
2023-05-23T07:49:28.302Z,14.23
2023-05-23T07:51:56.005Z,14.21
2023-05-23T07:54:23.796Z,14.18
2023-05-23T07:56:51.588Z,14.17
2023-05-23T07:59:19.337Z,14.17
2023-05-23T08:01:50.376Z,14.16
2023-05-23T08:04:18.664Z,14.13
2023-05-23T08:07:04.137Z,14.17
2023-05-23T08:09:32.714Z,14.24
2023-05-23T08:12:00.954Z,14.25
2023-05-23T08:14:42.279Z,14.25
2023-05-23T08:17:16.992Z,14.28
2023-05-23T08:19:45.009Z,14.30
2023-05-23T08:22:14.151Z,14.34
2023-05-23T08:24:41.987Z,14.38
2023-05-23T08:27:09.721Z,14.43
2023-05-23T08:29:38.432Z,14.48
2023-05-23T08:32:06.534Z,14.53
2023-05-23T08:34:34.426Z,14.58
2023-05-23T08:37:02.203Z,14.61
2023-05-23T08:39:31.365Z,14.60
2023-05-23T08:41:59.139Z,14.59
2023-05-23T08:44:26.928Z,14.55
2023-05-23T08:46:55.326Z,14.49
2023-05-23T08:49:23.907Z,14.47
2023-05-23T08:51:53.387Z,14.45
2023-05-23T08:54:22.376Z,14.44
2023-05-23T08:56:52.260Z,14.41
2023-05-23T08:59:20.930Z,14.44
2023-05-23T09:01:49.751Z,14.45
2023-05-23T09:04:17.498Z,14.46
2023-05-23T09:06:45.262Z,14.50
2023-05-23T09:09:12.997Z,14.55
2023-05-23T09:11:40.829Z,14.59
2023-05-23T09:14:09.934Z,14.65
2023-05-23T09:16:37.806Z,14.66
2023-05-23T09:19:12.041Z,14.66
2023-05-23T09:21:44.322Z,14.65
2023-05-23T09:24:12.153Z,14.66
2023-05-23T09:26:40.093Z,14.59
2023-05-23T09:29:09.262Z,14.55
2023-05-23T09:31:37.034Z,14.61
2023-05-23T09:34:04.986Z,14.64
2023-05-23T09:36:35.283Z,14.66
2023-05-23T09:39:05.716Z,14.68
2023-05-23T09:41:34.686Z,14.74
2023-05-23T09:44:06.838Z,14.79
2023-05-23T09:46:37.297Z,14.81
2023-05-23T09:49:16.283Z,14.84
2023-05-23T09:51:44.142Z,14.85
2023-05-23T09:54:11.900Z,14.89
2023-05-23T09:56:43.720Z,14.98
2023-05-23T09:59:14.100Z,15.05
2023-05-23T10:01:44.608Z,15.11
2023-05-23T10:04:13.015Z,15.12
2023-05-23T10:06:43.947Z,15.19
2023-05-23T10:09:15.923Z,15.23
2023-05-23T10:12:17.020Z,15.25
2023-05-23T10:14:47.017Z,15.25
2023-05-23T10:17:20.593Z,15.29
2023-05-23T10:19:53.338Z,15.35
2023-05-23T10:22:21.950Z,15.34
2023-05-23T10:24:49.705Z,15.35
2023-05-23T10:27:17.357Z,15.41
2023-05-23T10:29:45.849Z,15.49
2023-05-23T10:32:15.029Z,15.62
2023-05-23T10:34:51.255Z,15.73
2023-05-23T10:37:22.687Z,15.87
2023-05-23T10:39:58.684Z,15.93
2023-05-23T10:42:36.622Z,15.97
2023-05-23T10:45:17.790Z,15.96
2023-05-23T10:47:45.751Z,15.93
2023-05-23T10:50:17.134Z,15.86
2023-05-23T10:52:45.190Z,15.83
2023-05-23T10:55:17.879Z,15.83
2023-05-23T10:57:46.052Z,15.81
2023-05-23T11:00:16.315Z,15.84
2023-05-23T11:02:49.176Z,15.91
2023-05-23T11:05:23.162Z,15.93
2023-05-23T11:08:10.866Z,15.95
2023-05-23T11:11:00.031Z,15.98
2023-05-23T11:13:28.093Z,16.03
2023-05-23T11:15:55.815Z,16.06
2023-05-23T11:18:24.933Z,16.11
2023-05-23T11:20:55.611Z,16.16
2023-05-23T11:23:24.109Z,16.18
2023-05-23T11:25:53.873Z,16.18
2023-05-23T11:28:21.854Z,16.23
2023-05-23T11:30:50.406Z,16.28
2023-05-23T11:33:18.838Z,16.35
2023-05-23T11:35:47.856Z,16.38
2023-05-23T11:38:17.472Z,16.43
2023-05-23T11:40:46.849Z,16.45
2023-05-23T11:43:16.620Z,16.49
2023-05-23T11:45:46.856Z,16.52
2023-05-23T11:48:16.997Z,16.50
2023-05-23T11:50:46.957Z,16.48
2023-05-23T11:53:18.616Z,16.48
2023-05-23T11:55:50.503Z,16.51
2023-05-23T11:58:18.285Z,16.54
2023-05-23T12:00:46.305Z,16.57
2023-05-23T12:03:14.122Z,16.55
2023-05-23T12:05:44.519Z,16.57
2023-05-23T12:08:13.770Z,16.63
2023-05-23T12:10:52.549Z,16.66
2023-05-23T12:13:20.667Z,16.64
2023-05-23T12:15:49.786Z,16.61
2023-05-23T12:18:21.131Z,16.60
2023-05-23T12:21:13.506Z,16.57
2023-05-23T12:23:41.592Z,16.57
2023-05-23T12:26:10.181Z,16.60
2023-05-23T13:48:23.341Z,15.01
2023-05-23T13:50:51.199Z,15.37
2023-05-23T13:53:18.996Z,15.66
2023-05-23T13:55:46.848Z,15.98
2023-05-23T13:58:14.692Z,16.18
2023-05-23T14:00:43.183Z,16.32
2023-05-23T14:03:11.228Z,16.37
2023-05-23T14:05:40.575Z,16.42
2023-05-23T14:08:08.352Z,16.47
2023-05-23T14:10:36.254Z,16.50
2023-05-23T14:13:04.070Z,16.48
2023-05-23T14:15:34.396Z,16.46
2023-05-23T14:18:02.542Z,16.42
2023-05-23T14:20:30.625Z,16.43
2023-05-23T14:22:59.888Z,16.48
2023-05-23T14:25:27.743Z,16.63
2023-05-23T14:27:55.539Z,16.81
2023-05-23T14:30:23.278Z,16.93
2023-05-23T14:32:51.099Z,17.02
2023-05-23T14:35:18.906Z,17.09
2023-05-23T14:37:47.455Z,17.11
2023-05-23T14:40:17.276Z,17.07
2023-05-23T14:42:45.030Z,17.14
2023-05-23T14:45:13.048Z,17.17
2023-05-23T14:47:40.783Z,17.14
2023-05-23T14:50:09.649Z,17.15
2023-05-23T14:52:37.510Z,17.28
2023-05-23T14:55:06.142Z,17.36
2023-05-23T14:57:35.247Z,17.36
2023-05-23T15:00:05.316Z,17.42
2023-05-23T15:54:44.366Z,15.65
2023-05-23T15:57:12.121Z,15.89
2023-05-23T15:59:40.410Z,16.24
2023-05-23T16:02:10.218Z,16.55
2023-05-23T16:04:38.989Z,16.77
2023-05-23T16:07:06.868Z,16.96
2023-05-23T16:09:34.706Z,17.08
2023-05-23T16:12:03.816Z,17.21
2023-05-23T16:14:32.032Z,17.30
2023-05-23T16:17:02.849Z,17.33
2023-05-23T16:19:30.740Z,17.33
2023-05-23T16:21:58.896Z,17.34
2023-05-23T16:24:28.173Z,17.33
2023-05-23T16:26:56.149Z,17.34
2023-05-23T16:29:25.397Z,17.34
2023-05-23T16:31:53.211Z,17.36
2023-05-23T16:34:21.153Z,17.42
2023-05-23T16:36:48.859Z,17.41
2023-05-23T16:39:16.890Z,17.36
2023-05-23T16:41:44.622Z,17.34
2023-05-23T16:44:12.393Z,17.34
2023-05-23T16:46:41.693Z,17.33
2023-05-23T16:49:09.549Z,17.27
2023-05-23T16:51:37.249Z,17.33
2023-05-23T16:54:05.104Z,17.31
2023-05-23T16:56:32.798Z,17.33
2023-05-23T16:59:00.801Z,17.35
2023-05-23T17:01:30.425Z,17.37
2023-05-23T17:03:59.608Z,17.35
2023-05-23T17:06:27.341Z,17.35
2023-05-23T17:08:55.285Z,17.33
2023-05-23T17:11:23.247Z,17.32
2023-05-23T17:13:50.929Z,17.29
2023-05-23T17:16:20.252Z,17.24
2023-05-23T17:18:48.409Z,17.12
2023-05-23T17:21:17.559Z,17.05
2023-05-23T17:23:46.005Z,17.01
2023-05-23T17:26:13.931Z,17.00
2023-05-23T17:28:42.060Z,16.96
2023-05-23T17:31:10.678Z,16.94
2023-05-23T17:33:38.804Z,16.93
2023-05-23T17:36:06.755Z,16.95
2023-05-23T17:38:35.890Z,16.86
2023-05-23T17:41:03.796Z,16.83
2023-05-23T17:43:31.591Z,16.76
2023-05-23T17:45:59.474Z,16.68
2023-05-23T17:48:38.719Z,16.66
2023-05-23T17:51:13.225Z,16.64
2023-05-23T17:53:42.454Z,16.53
2023-05-23T17:56:10.381Z,16.41
2023-05-23T17:58:40.263Z,16.36
2023-05-23T18:01:11.580Z,16.36
2023-05-23T18:03:39.339Z,16.36
2023-05-23T18:06:07.367Z,16.33
2023-05-23T18:08:35.043Z,16.46
2023-05-23T18:11:04.203Z,16.57
2023-05-23T18:13:31.988Z,16.57
2023-05-23T18:15:59.736Z,16.50
2023-05-23T18:19:42.802Z,16.48
2023-05-23T18:22:10.917Z,16.39
2023-05-23T18:24:38.610Z,16.32
2023-05-23T18:27:06.772Z,16.25
2023-05-23T18:29:34.395Z,16.17
2023-05-23T18:32:02.228Z,16.05
2023-05-23T18:34:30.019Z,15.95
2023-05-23T18:36:59.170Z,15.87
2023-05-23T18:39:27.378Z,15.78
2023-05-23T18:41:55.117Z,15.69
2023-05-23T18:44:23.626Z,15.64
2023-05-23T18:46:51.417Z,15.60
2023-05-23T18:49:19.265Z,15.52
2023-05-23T18:51:47.648Z,15.40
2023-05-23T18:54:17.126Z,15.37
2023-05-23T18:56:44.883Z,15.32
2023-05-23T18:59:14.523Z,15.23
2023-05-23T19:01:42.263Z,15.20
2023-05-23T19:04:10.235Z,15.14
2023-05-23T19:06:38.100Z,15.11
2023-05-23T19:09:09.579Z,15.05
2023-05-23T19:11:38.839Z,15.02
2023-05-23T19:14:06.555Z,14.94
2023-05-23T19:16:34.461Z,14.89
2023-05-23T19:19:02.344Z,14.81
2023-05-23T19:21:32.045Z,14.86
2023-05-23T19:23:59.844Z,14.88
2023-05-23T19:26:30.075Z,14.89
2023-05-23T19:28:59.294Z,14.86
2023-05-23T19:31:27.166Z,14.84
2023-05-23T19:33:54.872Z,14.81
2023-05-23T19:36:22.755Z,14.83
2023-05-23T19:38:53.727Z,14.85
2023-05-23T19:41:22.388Z,14.86
2023-05-23T19:43:51.149Z,14.80
2023-05-23T19:46:20.294Z,14.84
2023-05-23T19:48:48.774Z,14.84
2023-05-23T19:51:16.518Z,14.85
2023-05-23T19:53:44.363Z,14.86
2023-05-23T19:56:12.530Z,14.83
2023-05-23T19:58:40.282Z,14.82
2023-05-23T20:01:08.161Z,14.76
2023-05-23T20:03:37.635Z,14.70
2023-05-23T20:06:05.923Z,14.61
2023-05-23T20:08:33.640Z,14.57
2023-05-23T20:11:01.442Z,14.51
2023-05-23T20:13:29.162Z,14.49
2023-05-23T20:15:56.948Z,14.44
2023-05-23T20:18:24.869Z,14.37
2023-05-23T20:20:54.350Z,14.32
2023-05-23T20:23:22.835Z,14.26
2023-05-23T20:25:51.682Z,14.23
2023-05-23T20:28:19.434Z,14.20
2023-05-23T20:30:47.321Z,14.16
2023-05-23T20:33:15.794Z,14.17
2023-05-23T20:35:44.360Z,14.15
2023-05-23T20:38:13.669Z,14.16
2023-05-23T20:40:42.013Z,14.16
2023-05-23T20:43:10.390Z,14.17
2023-05-23T20:45:38.071Z,14.15
2023-05-23T20:48:06.112Z,14.15
2023-05-23T20:50:35.625Z,14.13
2023-05-23T20:53:03.630Z,14.15
2023-05-23T20:55:34.925Z,14.14
2023-05-23T20:58:02.651Z,14.10
2023-05-23T21:00:30.491Z,14.12
2023-05-23T21:02:58.458Z,14.12
2023-05-23T21:05:26.440Z,14.10
2023-05-23T21:07:54.227Z,14.09
2023-05-23T21:10:22.278Z,14.08
2023-05-23T21:12:51.654Z,14.05
2023-05-23T21:15:19.847Z,14.04
2023-05-23T21:17:47.570Z,14.02
2023-05-23T21:20:16.167Z,13.95
2023-05-23T21:22:43.980Z,13.91
2023-05-23T21:25:12.109Z,13.88
2023-05-23T21:27:39.867Z,13.85
2023-05-23T21:30:10.589Z,13.82
2023-05-23T21:32:38.422Z,13.78
2023-05-23T21:35:07.189Z,13.77
2023-05-23T21:37:35.005Z,13.74
2023-05-23T21:40:02.844Z,13.73
2023-05-23T21:42:30.978Z,13.64
2023-05-23T21:44:58.792Z,13.60
2023-05-23T21:47:28.002Z,13.55
2023-05-23T21:49:55.986Z,13.52
2023-05-23T21:52:23.742Z,13.49
2023-05-23T21:54:51.749Z,13.47
2023-05-23T21:57:19.528Z,13.46
2023-05-23T21:59:47.256Z,13.44
2023-05-23T22:02:15.189Z,13.44
2023-05-23T22:04:44.845Z,13.39
2023-05-23T22:07:12.641Z,13.39
2023-05-23T22:09:40.632Z,13.39
2023-05-23T22:12:08.651Z,13.32
2023-05-23T22:14:36.452Z,13.29
2023-05-23T22:17:04.431Z,13.26
2023-05-23T22:19:32.250Z,13.26
2023-05-23T22:22:01.377Z,13.26
2023-05-23T22:24:29.243Z,13.21
2023-05-23T22:26:58.356Z,13.19
2023-05-23T22:29:26.301Z,13.18
2023-05-23T22:31:54.064Z,13.16
2023-05-23T22:34:21.823Z,13.14
2023-05-23T22:36:49.602Z,13.11
2023-05-23T22:39:18.825Z,13.09
2023-05-23T22:41:46.691Z,13.05
2023-05-23T22:44:14.414Z,13.05
2023-05-23T22:46:43.391Z,13.03
2023-05-23T22:49:11.304Z,13.02
2023-05-23T22:51:39.084Z,12.99
2023-05-23T22:54:06.919Z,12.98
2023-05-23T22:56:36.012Z,12.97
2023-05-23T22:59:03.718Z,12.94
2023-05-23T23:01:31.572Z,12.91
2023-05-23T23:03:59.392Z,12.89
2023-05-23T23:06:27.097Z,12.86
2023-05-23T23:08:54.833Z,12.83
2023-05-23T23:11:22.569Z,12.76
2023-05-23T23:13:51.618Z,12.74
2023-05-23T23:16:21.124Z,12.71
2023-05-23T23:18:49.061Z,12.68
2023-05-23T23:21:16.749Z,12.66
2023-05-23T23:23:44.525Z,12.63
2023-05-23T23:26:12.281Z,12.62
2023-05-23T23:28:39.968Z,12.59
2023-05-23T23:31:09.086Z,12.58
2023-05-23T23:33:36.790Z,12.57
2023-05-23T23:36:04.977Z,12.53
2023-05-23T23:38:33.075Z,12.50
2023-05-23T23:41:00.789Z,12.48
2023-05-23T23:43:28.550Z,12.45
2023-05-23T23:45:56.326Z,12.41
2023-05-23T23:48:25.446Z,12.40
2023-05-23T23:50:53.150Z,12.40
2023-05-23T23:53:21.873Z,12.39
2023-05-23T23:55:49.787Z,12.38
2023-05-23T23:58:17.806Z,12.37
